Terminal Aerodrome Forecast
Issued by NWS

Home | Current Version | Previous Version | Text Only | Print | Product List | Glossary On
Versions: 1 2 3 4 5 6 7 8 9 10 11 12 13 14 15 16 17 18 19 20 21
000
FTUS44 KLZK 161403 AAA
TAFPBF
TAF AMD
KPBF 161403Z 1614/1712 21008KT P6SM SCT040 BKN250
      TEMPO 1614/1618 BKN020
     FM170000 19008KT P6SM BKN250=

USA.gov is the U.S. government's official web portal to all federal, state and local government web resources and services.